sensor_id;sensor_type;location;lat;lon;timestamp;pressure;altitude;pressure_sealevel;temperature;humidity
41706;BME280;27385;51.096;17.190;2022-11-22T00:00:10;99228.14;;;0.69;90.90
41706;BME280;27385;51.096;17.190;2022-11-22T00:03:02;99235.02;;;0.70;90.92
41706;BME280;27385;51.096;17.190;2022-11-22T00:05:34;99236.10;;;0.68;90.77
41706;BME280;27385;51.096;17.190;2022-11-22T00:08:06;99238.97;;;0.69;90.91
41706;BME280;27385;51.096;17.190;2022-11-22T00:10:38;99234.14;;;0.70;90.93
41706;BME280;27385;51.096;17.190;2022-11-22T00:13:10;99228.48;;;0.71;91.02
41706;BME280;27385;51.096;17.190;2022-11-22T00:15:42;99225.03;;;0.73;90.97
41706;BME280;27385;51.096;17.190;2022-11-22T00:18:13;99230.08;;;0.72;90.93
41706;BME280;27385;51.096;17.190;2022-11-22T00:20:46;99223.41;;;0.73;91.03
41706;BME280;27385;51.096;17.190;2022-11-22T00:23:18;99220.86;;;0.71;90.99
41706;BME280;27385;51.096;17.190;2022-11-22T00:25:49;99218.04;;;0.71;91.07
41706;BME280;27385;51.096;17.190;2022-11-22T00:28:21;99210.08;;;0.72;91.10
41706;BME280;27385;51.096;17.190;2022-11-22T00:30:53;99204.71;;;0.73;91.20
41706;BME280;27385;51.096;17.190;2022-11-22T00:33:25;99206.40;;;0.75;91.14
41706;BME280;27385;51.096;17.190;2022-11-22T00:35:57;99203.42;;;0.74;91.14
41706;BME280;27385;51.096;17.190;2022-11-22T00:38:28;99204.80;;;0.76;91.11
41706;BME280;27385;51.096;17.190;2022-11-22T00:41:00;99202.69;;;0.75;91.15
41706;BME280;27385;51.096;17.190;2022-11-22T00:43:31;99197.98;;;0.75;91.18
41706;BME280;27385;51.096;17.190;2022-11-22T00:46:03;99197.55;;;0.76;91.15
41706;BME280;27385;51.096;17.190;2022-11-22T00:48:34;99191.52;;;0.78;91.24
41706;BME280;27385;51.096;17.190;2022-11-22T00:51:07;99184.27;;;0.77;91.24
41706;BME280;27385;51.096;17.190;2022-11-22T00:53:38;99185.32;;;0.78;91.34
41706;BME280;27385;51.096;17.190;2022-11-22T00:56:09;99182.27;;;0.75;91.19
41706;BME280;27385;51.096;17.190;2022-11-22T00:58:41;99185.27;;;0.72;91.15
41706;BME280;27385;51.096;17.190;2022-11-22T01:01:14;99184.55;;;0.70;91.24
41706;BME280;27385;51.096;17.190;2022-11-22T01:03:46;99185.64;;;0.70;91.34
41706;BME280;27385;51.096;17.190;2022-11-22T01:06:18;99179.81;;;0.68;91.44
41706;BME280;27385;51.096;17.190;2022-11-22T01:08:50;99183.22;;;0.65;91.32
41706;BME280;27385;51.096;17.190;2022-11-22T01:11:21;99177.88;;;0.65;91.61
41706;BME280;27385;51.096;17.190;2022-11-22T01:13:52;99171.40;;;0.66;91.60
41706;BME280;27385;51.096;17.190;2022-11-22T01:16:25;99172.16;;;0.65;91.49
41706;BME280;27385;51.096;17.190;2022-11-22T01:18:56;99178.03;;;0.62;91.54
41706;BME280;27385;51.096;17.190;2022-11-22T01:21:27;99179.55;;;0.61;91.53
41706;BME280;27385;51.096;17.190;2022-11-22T01:23:59;99186.45;;;0.59;91.61
41706;BME280;27385;51.096;17.190;2022-11-22T01:26:31;99190.32;;;0.59;91.62
41706;BME280;27385;51.096;17.190;2022-11-22T01:29:03;99186.73;;;0.58;91.57
41706;BME280;27385;51.096;17.190;2022-11-22T01:31:34;99179.86;;;0.54;91.45
41706;BME280;27385;51.096;17.190;2022-11-22T01:34:07;99184.27;;;0.50;91.46
41706;BME280;27385;51.096;17.190;2022-11-22T01:36:38;99178.25;;;0.47;91.62
41706;BME280;27385;51.096;17.190;2022-11-22T01:39:09;99179.73;;;0.45;91.71
41706;BME280;27385;51.096;17.190;2022-11-22T01:41:41;99183.54;;;0.46;91.83
41706;BME280;27385;51.096;17.190;2022-11-22T01:44:21;99184.70;;;0.46;91.78
41706;BME280;27385;51.096;17.190;2022-11-22T01:46:54;99191.25;;;0.48;91.88
41706;BME280;27385;51.096;17.190;2022-11-22T01:49:32;99183.83;;;0.47;91.62
41706;BME280;27385;51.096;17.190;2022-11-22T01:52:07;99173.30;;;0.45;91.74
41706;BME280;27385;51.096;17.190;2022-11-22T01:54:41;99170.87;;;0.45;91.88
41706;BME280;27385;51.096;17.190;2022-11-22T01:57:19;99161.18;;;0.46;91.79
41706;BME280;27385;51.096;17.190;2022-11-22T01:59:55;99151.79;;;0.43;91.74
41706;BME280;27385;51.096;17.190;2022-11-22T02:02:28;99149.48;;;0.42;91.83
41706;BME280;27385;51.096;17.190;2022-11-22T02:05:03;99145.80;;;0.41;91.90
41706;BME280;27385;51.096;17.190;2022-11-22T02:07:40;99150.51;;;0.41;91.91
41706;BME280;27385;51.096;17.190;2022-11-22T02:10:15;99151.38;;;0.41;92.00
41706;BME280;27385;51.096;17.190;2022-11-22T02:12:48;99151.34;;;0.42;92.08
41706;BME280;27385;51.096;17.190;2022-11-22T02:15:21;99147.77;;;0.46;92.22
41706;BME280;27385;51.096;17.190;2022-11-22T02:17:53;99149.98;;;0.50;92.28
41706;BME280;27385;51.096;17.190;2022-11-22T02:20:26;99150.42;;;0.52;91.98
41706;BME280;27385;51.096;17.190;2022-11-22T02:23:02;99147.29;;;0.52;91.93
41706;BME280;27385;51.096;17.190;2022-11-22T02:25:43;99146.16;;;0.52;91.92
41706;BME280;27385;51.096;17.190;2022-11-22T02:28:17;99150.76;;;0.51;91.93
41706;BME280;27385;51.096;17.190;2022-11-22T02:30:48;99155.94;;;0.48;91.80
41706;BME280;27385;51.096;17.190;2022-11-22T02:33:20;99147.54;;;0.48;91.99
41706;BME280;27385;51.096;17.190;2022-11-22T02:35:52;99138.59;;;0.49;91.99
41706;BME280;27385;51.096;17.190;2022-11-22T02:38:25;99141.36;;;0.51;92.26
41706;BME280;27385;51.096;17.190;2022-11-22T02:40:58;99134.63;;;0.52;92.17
41706;BME280;27385;51.096;17.190;2022-11-22T02:43:31;99124.85;;;0.52;92.27
41706;BME280;27385;51.096;17.190;2022-11-22T02:46:08;99122.14;;;0.53;92.43
41706;BME280;27385;51.096;17.190;2022-11-22T02:48:42;99117.63;;;0.54;92.54
41706;BME280;27385;51.096;17.190;2022-11-22T02:51:16;99109.65;;;0.53;92.51
41706;BME280;27385;51.096;17.190;2022-11-22T02:53:50;99105.86;;;0.52;92.54
41706;BME280;27385;51.096;17.190;2022-11-22T02:56:22;99096.48;;;0.50;92.65
41706;BME280;27385;51.096;17.190;2022-11-22T02:58:54;99091.78;;;0.50;92.64
41706;BME280;27385;51.096;17.190;2022-11-22T03:01:25;99091.27;;;0.49;92.78
41706;BME280;27385;51.096;17.190;2022-11-22T03:03:56;99088.39;;;0.48;92.77
41706;BME280;27385;51.096;17.190;2022-11-22T03:06:29;99085.88;;;0.46;92.73
41706;BME280;27385;51.096;17.190;2022-11-22T03:09:00;99082.85;;;0.45;92.80
41706;BME280;27385;51.096;17.190;2022-11-22T03:11:32;99083.38;;;0.46;92.93
41706;BME280;27385;51.096;17.190;2022-11-22T03:14:04;99090.23;;;0.45;92.83
41706;BME280;27385;51.096;17.190;2022-11-22T03:16:35;99099.98;;;0.41;92.90
41706;BME280;27385;51.096;17.190;2022-11-22T03:19:07;99112.51;;;0.40;92.91
41706;BME280;27385;51.096;17.190;2022-11-22T03:21:38;99119.50;;;0.39;93.07
41706;BME280;27385;51.096;17.190;2022-11-22T03:24:10;99106.16;;;0.37;92.99
41706;BME280;27385;51.096;17.190;2022-11-22T03:26:42;99100.15;;;0.38;93.22
41706;BME280;27385;51.096;17.190;2022-11-22T03:29:16;99101.38;;;0.39;93.18
41706;BME280;27385;51.096;17.190;2022-11-22T03:31:48;99106.17;;;0.39;93.20
41706;BME280;27385;51.096;17.190;2022-11-22T03:34:19;99110.56;;;0.36;93.20
41706;BME280;27385;51.096;17.190;2022-11-22T03:36:50;99116.17;;;0.34;93.21
41706;BME280;27385;51.096;17.190;2022-11-22T03:39:22;99120.29;;;0.34;93.34
41706;BME280;27385;51.096;17.190;2022-11-22T03:41:53;99124.13;;;0.34;93.43
41706;BME280;27385;51.096;17.190;2022-11-22T03:44:25;99118.68;;;0.32;93.42
41706;BME280;27385;51.096;17.190;2022-11-22T03:46:56;99115.00;;;0.33;93.50
41706;BME280;27385;51.096;17.190;2022-11-22T03:49:27;99110.38;;;0.32;93.57
41706;BME280;27385;51.096;17.190;2022-11-22T03:51:59;99108.05;;;0.34;93.65
41706;BME280;27385;51.096;17.190;2022-11-22T03:54:31;99103.27;;;0.34;93.61
41706;BME280;27385;51.096;17.190;2022-11-22T03:57:02;99103.57;;;0.31;93.59
41706;BME280;27385;51.096;17.190;2022-11-22T03:59:34;99102.38;;;0.29;93.68
41706;BME280;27385;51.096;17.190;2022-11-22T04:02:06;99101.61;;;0.29;93.65
41706;BME280;27385;51.096;17.190;2022-11-22T04:04:37;99098.27;;;0.28;93.72
41706;BME280;27385;51.096;17.190;2022-11-22T04:07:09;99096.83;;;0.31;93.87
41706;BME280;27385;51.096;17.190;2022-11-22T04:09:40;99096.73;;;0.32;93.74
41706;BME280;27385;51.096;17.190;2022-11-22T04:12:11;99094.27;;;0.31;93.80
41706;BME280;27385;51.096;17.190;2022-11-22T04:14:43;99102.51;;;0.31;93.90
41706;BME280;27385;51.096;17.190;2022-11-22T04:17:32;99100.06;;;0.31;94.00
41706;BME280;27385;51.096;17.190;2022-11-22T04:20:15;99097.26;;;0.31;94.00
41706;BME280;27385;51.096;17.190;2022-11-22T04:23:06;99083.71;;;0.32;94.07
41706;BME280;27385;51.096;17.190;2022-11-22T04:25:39;99081.69;;;0.34;94.09
41706;BME280;27385;51.096;17.190;2022-11-22T04:28:12;99087.89;;;0.37;94.15
41706;BME280;27385;51.096;17.190;2022-11-22T04:30:44;99083.23;;;0.38;94.22
41706;BME280;27385;51.096;17.190;2022-11-22T04:33:33;99074.35;;;0.38;94.21
41706;BME280;27385;51.096;17.190;2022-11-22T04:36:07;99068.91;;;0.39;94.34
41706;BME280;27385;51.096;17.190;2022-11-22T04:38:39;99065.81;;;0.40;94.33
41706;BME280;27385;51.096;17.190;2022-11-22T04:41:11;99064.16;;;0.40;94.39
41706;BME280;27385;51.096;17.190;2022-11-22T04:43:42;99063.95;;;0.40;94.45
41706;BME280;27385;51.096;17.190;2022-11-22T04:46:31;99061.15;;;0.41;94.53
41706;BME280;27385;51.096;17.190;2022-11-22T04:49:04;99061.46;;;0.42;94.65
41706;BME280;27385;51.096;17.190;2022-11-22T04:51:35;99065.81;;;0.45;94.73
41706;BME280;27385;51.096;17.190;2022-11-22T04:54:27;99062.45;;;0.47;94.81
41706;BME280;27385;51.096;17.190;2022-11-22T04:56:59;99063.33;;;0.47;94.77
41706;BME280;27385;51.096;17.190;2022-11-22T04:59:30;99067.45;;;0.48;94.75
41706;BME280;27385;51.096;17.190;2022-11-22T05:02:02;99068.38;;;0.49;94.87
41706;BME280;27385;51.096;17.190;2022-11-22T05:04:34;99064.99;;;0.51;94.85
41706;BME280;27385;51.096;17.190;2022-11-22T05:07:06;99064.86;;;0.53;94.97
41706;BME280;27385;51.096;17.190;2022-11-22T05:09:38;99065.04;;;0.55;94.94
41706;BME280;27385;51.096;17.190;2022-11-22T05:12:09;99062.09;;;0.56;94.94
41706;BME280;27385;51.096;17.190;2022-11-22T05:14:40;99059.64;;;0.57;95.10
41706;BME280;27385;51.096;17.190;2022-11-22T05:17:11;99060.10;;;0.57;95.03
41706;BME280;27385;51.096;17.190;2022-11-22T05:19:43;99056.89;;;0.57;95.15
41706;BME280;27385;51.096;17.190;2022-11-22T05:22:14;99065.39;;;0.59;95.27
41706;BME280;27385;51.096;17.190;2022-11-22T05:24:45;99068.74;;;0.62;95.26
41706;BME280;27385;51.096;17.190;2022-11-22T05:27:17;99059.28;;;0.63;95.17
41706;BME280;27385;51.096;17.190;2022-11-22T05:29:49;99061.83;;;0.65;95.33
41706;BME280;27385;51.096;17.190;2022-11-22T05:32:25;99064.77;;;0.63;95.18
41706;BME280;27385;51.096;17.190;2022-11-22T05:34:58;99075.17;;;0.60;95.14
41706;BME280;27385;51.096;17.190;2022-11-22T05:37:30;99082.52;;;0.58;95.22
41706;BME280;27385;51.096;17.190;2022-11-22T05:40:01;99083.50;;;0.57;95.39
41706;BME280;27385;51.096;17.190;2022-11-22T05:42:32;99083.91;;;0.59;95.40
41706;BME280;27385;51.096;17.190;2022-11-22T05:45:05;99089.52;;;0.60;95.48
41706;BME280;27385;51.096;17.190;2022-11-22T05:47:37;99092.85;;;0.64;95.53
41706;BME280;27385;51.096;17.190;2022-11-22T05:50:09;99086.13;;;0.65;95.50
41706;BME280;27385;51.096;17.190;2022-11-22T05:52:41;99084.96;;;0.68;95.49
41706;BME280;27385;51.096;17.190;2022-11-22T05:55:12;99090.88;;;0.69;95.48
41706;BME280;27385;51.096;17.190;2022-11-22T05:57:44;99090.32;;;0.72;95.63
41706;BME280;27385;51.096;17.190;2022-11-22T06:00:17;99093.33;;;0.73;95.52
41706;BME280;27385;51.096;17.190;2022-11-22T06:02:48;99094.66;;;0.74;95.58
41706;BME280;27385;51.096;17.190;2022-11-22T06:05:20;99088.43;;;0.74;95.58
41706;BME280;27385;51.096;17.190;2022-11-22T06:07:51;99085.01;;;0.76;95.61
41706;BME280;27385;51.096;17.190;2022-11-22T06:10:24;99091.27;;;0.79;95.64
41706;BME280;27385;51.096;17.190;2022-11-22T06:12:55;99101.52;;;0.80;95.64
41706;BME280;27385;51.096;17.190;2022-11-22T06:15:27;99104.22;;;0.81;95.75
41706;BME280;27385;51.096;17.190;2022-11-22T06:18:00;99103.51;;;0.82;95.79
41706;BME280;27385;51.096;17.190;2022-11-22T06:20:32;99105.81;;;0.83;95.78
41706;BME280;27385;51.096;17.190;2022-11-22T06:23:03;99108.60;;;0.82;95.71
41706;BME280;27385;51.096;17.190;2022-11-22T06:25:35;99108.25;;;0.80;95.74
41706;BME280;27385;51.096;17.190;2022-11-22T06:28:06;99106.71;;;0.82;95.82
41706;BME280;27385;51.096;17.190;2022-11-22T06:30:38;99104.02;;;0.86;95.99
41706;BME280;27385;51.096;17.190;2022-11-22T06:33:09;99105.20;;;0.88;95.98
41706;BME280;27385;51.096;17.190;2022-11-22T06:35:42;99102.17;;;0.89;95.94
41706;BME280;27385;51.096;17.190;2022-11-22T06:38:14;99104.89;;;0.91;95.99
41706;BME280;27385;51.096;17.190;2022-11-22T06:40:45;99104.21;;;0.92;96.00
41706;BME280;27385;51.096;17.190;2022-11-22T06:43:17;99104.05;;;0.92;95.93
41706;BME280;27385;51.096;17.190;2022-11-22T06:45:48;99109.33;;;0.94;96.02
41706;BME280;27385;51.096;17.190;2022-11-22T06:48:20;99118.10;;;0.94;95.98
41706;BME280;27385;51.096;17.190;2022-11-22T06:50:56;99123.30;;;0.96;96.13
41706;BME280;27385;51.096;17.190;2022-11-22T06:53:29;99128.83;;;0.98;96.27
41706;BME280;27385;51.096;17.190;2022-11-22T06:56:03;99133.65;;;0.97;96.08
41706;BME280;27385;51.096;17.190;2022-11-22T06:58:35;99142.38;;;0.96;96.23
41706;BME280;27385;51.096;17.190;2022-11-22T07:01:10;99143.47;;;0.97;96.28
41706;BME280;27385;51.096;17.190;2022-11-22T07:03:43;99139.52;;;0.97;96.39
41706;BME280;27385;51.096;17.190;2022-11-22T07:06:16;99134.45;;;0.99;96.55
41706;BME280;27385;51.096;17.190;2022-11-22T07:08:47;99144.16;;;0.99;96.49
41706;BME280;27385;51.096;17.190;2022-11-22T07:11:20;99153.73;;;1.00;96.60
41706;BME280;27385;51.096;17.190;2022-11-22T07:13:53;99166.23;;;1.00;96.63
41706;BME280;27385;51.096;17.190;2022-11-22T07:16:25;99164.08;;;0.98;96.72
41706;BME280;27385;51.096;17.190;2022-11-22T07:18:58;99155.38;;;1.00;96.88
41706;BME280;27385;51.096;17.190;2022-11-22T07:21:30;99145.19;;;1.02;96.93
41706;BME280;27385;51.096;17.190;2022-11-22T07:24:02;99142.15;;;1.04;97.07
41706;BME280;27385;51.096;17.190;2022-11-22T07:26:36;99131.73;;;1.05;97.02
41706;BME280;27385;51.096;17.190;2022-11-22T07:29:07;99133.45;;;1.08;97.00
41706;BME280;27385;51.096;17.190;2022-11-22T07:31:39;99136.14;;;1.10;97.06
41706;BME280;27385;51.096;17.190;2022-11-22T07:34:12;99124.60;;;1.12;97.14
41706;BME280;27385;51.096;17.190;2022-11-22T07:36:43;99116.13;;;1.14;97.16
41706;BME280;27385;51.096;17.190;2022-11-22T07:39:15;99112.09;;;1.17;97.29
41706;BME280;27385;51.096;17.190;2022-11-22T07:41:47;99110.09;;;1.21;97.25
41706;BME280;27385;51.096;17.190;2022-11-22T07:44:21;99104.85;;;1.23;97.26
41706;BME280;27385;51.096;17.190;2022-11-22T07:46:53;99114.99;;;1.26;97.36
41706;BME280;27385;51.096;17.190;2022-11-22T07:49:24;99116.95;;;1.29;97.35
41706;BME280;27385;51.096;17.190;2022-11-22T07:51:55;99120.09;;;1.32;97.26
41706;BME280;27385;51.096;17.190;2022-11-22T07:54:28;99121.83;;;1.34;97.31
41706;BME280;27385;51.096;17.190;2022-11-22T07:57:00;99115.52;;;1.35;97.32
41706;BME280;27385;51.096;17.190;2022-11-22T07:59:31;99106.79;;;1.37;97.41
41706;BME280;27385;51.096;17.190;2022-11-22T08:02:03;99105.65;;;1.38;97.41
41706;BME280;27385;51.096;17.190;2022-11-22T08:04:34;99105.45;;;1.40;97.48
41706;BME280;27385;51.096;17.190;2022-11-22T08:07:06;99104.48;;;1.42;97.46
41706;BME280;27385;51.096;17.190;2022-11-22T08:09:38;99100.52;;;1.46;97.46
41706;BME280;27385;51.096;17.190;2022-11-22T08:12:10;99098.72;;;1.47;97.50
41706;BME280;27385;51.096;17.190;2022-11-22T08:14:41;99082.84;;;1.51;97.35
41706;BME280;27385;51.096;17.190;2022-11-22T08:17:14;99078.69;;;1.55;97.48
41706;BME280;27385;51.096;17.190;2022-11-22T08:19:47;99081.29;;;1.59;97.35
41706;BME280;27385;51.096;17.190;2022-11-22T08:22:22;99082.17;;;1.60;97.20
41706;BME280;27385;51.096;17.190;2022-11-22T08:24:54;99080.94;;;1.62;97.21
41706;BME280;27385;51.096;17.190;2022-11-22T08:27:25;99086.27;;;1.62;97.07
41706;BME280;27385;51.096;17.190;2022-11-22T08:29:59;99088.08;;;1.64;97.03
41706;BME280;27385;51.096;17.190;2022-11-22T08:32:30;99092.58;;;1.66;97.00
41706;BME280;27385;51.096;17.190;2022-11-22T08:35:02;99092.65;;;1.66;96.94
41706;BME280;27385;51.096;17.190;2022-11-22T08:37:34;99092.05;;;1.68;96.96
41706;BME280;27385;51.096;17.190;2022-11-22T08:40:08;99092.83;;;1.70;96.99
41706;BME280;27385;51.096;17.190;2022-11-22T08:42:39;99088.08;;;1.71;97.00
41706;BME280;27385;51.096;17.190;2022-11-22T08:45:12;99091.66;;;1.72;97.04
41706;BME280;27385;51.096;17.190;2022-11-22T08:47:44;99101.84;;;1.76;97.09
41706;BME280;27385;51.096;17.190;2022-11-22T08:50:18;99099.85;;;1.78;97.01
41706;BME280;27385;51.096;17.190;2022-11-22T08:52:49;99102.92;;;1.81;97.12
41706;BME280;27385;51.096;17.190;2022-11-22T08:55:24;99106.45;;;1.83;97.14
41706;BME280;27385;51.096;17.190;2022-11-22T08:57:58;99113.86;;;1.85;97.04
41706;BME280;27385;51.096;17.190;2022-11-22T09:00:30;99114.01;;;1.87;97.13
41706;BME280;27385;51.096;17.190;2022-11-22T09:03:01;99114.52;;;1.91;97.10
41706;BME280;27385;51.096;17.190;2022-11-22T09:05:34;99112.69;;;1.91;97.02
41706;BME280;27385;51.096;17.190;2022-11-22T09:08:06;99115.30;;;1.94;96.97
41706;BME280;27385;51.096;17.190;2022-11-22T09:10:38;99118.90;;;1.97;96.93
41706;BME280;27385;51.096;17.190;2022-11-22T09:13:10;99121.83;;;2.01;96.80
41706;BME280;27385;51.096;17.190;2022-11-22T09:15:41;99120.33;;;2.01;96.67
41706;BME280;27385;51.096;17.190;2022-11-22T09:18:14;99120.48;;;2.02;96.67
41706;BME280;27385;51.096;17.190;2022-11-22T09:20:48;99127.23;;;2.02;96.58
41706;BME280;27385;51.096;17.190;2022-11-22T09:23:19;99127.55;;;2.01;96.61
41706;BME280;27385;51.096;17.190;2022-11-22T09:25:57;99127.36;;;2.03;96.68
41706;BME280;27385;51.096;17.190;2022-11-22T09:28:29;99130.20;;;2.02;96.61
41706;BME280;27385;51.096;17.190;2022-11-22T09:31:02;99125.63;;;2.05;96.70
41706;BME280;27385;51.096;17.190;2022-11-22T09:33:35;99121.55;;;2.07;96.72
41706;BME280;27385;51.096;17.190;2022-11-22T09:36:10;99122.02;;;2.11;96.75
41706;BME280;27385;51.096;17.190;2022-11-22T09:38:42;99112.36;;;2.12;96.67
41706;BME280;27385;51.096;17.190;2022-11-22T09:41:22;99109.98;;;2.15;96.71
41706;BME280;27385;51.096;17.190;2022-11-22T09:44:02;99107.30;;;2.19;96.67
41706;BME280;27385;51.096;17.190;2022-11-22T09:46:47;99108.06;;;2.23;96.67
41706;BME280;27385;51.096;17.190;2022-11-22T09:49:29;99107.17;;;2.27;96.54
41706;BME280;27385;51.096;17.190;2022-11-22T09:52:08;99100.13;;;2.31;96.46
41706;BME280;27385;51.096;17.190;2022-11-22T09:54:45;99096.19;;;2.33;96.33
41706;BME280;27385;51.096;17.190;2022-11-22T09:57:20;99094.42;;;2.35;96.30
41706;BME280;27385;51.096;17.190;2022-11-22T10:00:03;99101.73;;;2.40;96.22
41706;BME280;27385;51.096;17.190;2022-11-22T10:02:38;99106.52;;;2.40;96.04
41706;BME280;27385;51.096;17.190;2022-11-22T10:05:18;99109.48;;;2.43;95.96
41706;BME280;27385;51.096;17.190;2022-11-22T10:07:56;99111.67;;;2.43;95.99
41706;BME280;27385;51.096;17.190;2022-11-22T10:10:33;99103.52;;;2.45;95.91
41706;BME280;27385;51.096;17.190;2022-11-22T10:13:12;99101.41;;;2.49;96.11
41706;BME280;27385;51.096;17.190;2022-11-22T10:15:51;99093.90;;;2.54;96.17
41706;BME280;27385;51.096;17.190;2022-11-22T10:18:33;99092.79;;;2.58;96.15
41706;BME280;27385;51.096;17.190;2022-11-22T10:21:11;99088.06;;;2.62;95.95
41706;BME280;27385;51.096;17.190;2022-11-22T10:23:44;99094.35;;;2.64;95.88
41706;BME280;27385;51.096;17.190;2022-11-22T10:26:23;99096.50;;;2.67;95.76
41706;BME280;27385;51.096;17.190;2022-11-22T10:29:07;99097.98;;;2.70;95.72
41706;BME280;27385;51.096;17.190;2022-11-22T10:31:49;99101.73;;;2.73;95.55
41706;BME280;27385;51.096;17.190;2022-11-22T10:34:32;99095.48;;;2.75;95.56
41706;BME280;27385;51.096;17.190;2022-11-22T10:37:18;99093.54;;;2.77;95.41
41706;BME280;27385;51.096;17.190;2022-11-22T10:40:04;99088.36;;;2.78;95.36
41706;BME280;27385;51.096;17.190;2022-11-22T10:43:09;99096.18;;;2.79;95.39
41706;BME280;27385;51.096;17.190;2022-11-22T10:45:48;99096.95;;;2.82;95.25
41706;BME280;27385;51.096;17.190;2022-11-22T10:48:26;99091.48;;;2.83;95.26
41706;BME280;27385;51.096;17.190;2022-11-22T10:51:06;99089.77;;;2.84;95.22
41706;BME280;27385;51.096;17.190;2022-11-22T10:53:49;99091.34;;;2.86;95.21
41706;BME280;27385;51.096;17.190;2022-11-22T10:56:28;99093.02;;;2.88;95.19
41706;BME280;27385;51.096;17.190;2022-11-22T10:59:12;99086.58;;;2.89;95.07
41706;BME280;27385;51.096;17.190;2022-11-22T11:01:54;99084.70;;;2.89;94.97
41706;BME280;27385;51.096;17.190;2022-11-22T11:04:28;99086.05;;;2.91;95.07
41706;BME280;27385;51.096;17.190;2022-11-22T11:07:03;99081.80;;;2.92;95.11
41706;BME280;27385;51.096;17.190;2022-11-22T11:09:39;99081.66;;;2.96;95.20
41706;BME280;27385;51.096;17.190;2022-11-22T11:12:17;99085.33;;;2.96;94.90
41706;BME280;27385;51.096;17.190;2022-11-22T11:14:54;99090.52;;;2.97;94.95
41706;BME280;27385;51.096;17.190;2022-11-22T11:17:31;99091.65;;;2.98;94.84
41706;BME280;27385;51.096;17.190;2022-11-22T11:20:10;99090.89;;;2.99;94.77
41706;BME280;27385;51.096;17.190;2022-11-22T11:22:43;99088.29;;;3.03;94.91
41706;BME280;27385;51.096;17.190;2022-11-22T11:25:32;99083.95;;;3.05;94.83
41706;BME280;27385;51.096;17.190;2022-11-22T11:28:11;99081.58;;;3.09;94.75
41706;BME280;27385;51.096;17.190;2022-11-22T11:30:49;99083.45;;;3.14;94.89
41706;BME280;27385;51.096;17.190;2022-11-22T11:33:29;99083.02;;;3.18;94.79
41706;BME280;27385;51.096;17.190;2022-11-22T11:36:07;99082.05;;;3.22;94.68
41706;BME280;27385;51.096;17.190;2022-11-22T11:38:51;99083.52;;;3.27;94.55
41706;BME280;27385;51.096;17.190;2022-11-22T11:41:27;99079.50;;;3.33;94.58
41706;BME280;27385;51.096;17.190;2022-11-22T11:44:00;99084.00;;;3.38;94.55
41706;BME280;27385;51.096;17.190;2022-11-22T11:46:45;99090.85;;;3.44;94.38
41706;BME280;27385;51.096;17.190;2022-11-22T11:49:20;99089.38;;;3.47;94.32
41706;BME280;27385;51.096;17.190;2022-11-22T11:51:56;99086.34;;;3.50;94.32
41706;BME280;27385;51.096;17.190;2022-11-22T11:54:39;99083.33;;;3.52;94.32
41706;BME280;27385;51.096;17.190;2022-11-22T11:57:13;99078.08;;;3.55;94.32
41706;BME280;27385;51.096;17.190;2022-11-22T11:59:47;99075.13;;;3.58;94.19
41706;BME280;27385;51.096;17.190;2022-11-22T12:02:22;99072.89;;;3.58;94.07
41706;BME280;27385;51.096;17.190;2022-11-22T12:04:55;99059.33;;;3.62;94.13
41706;BME280;27385;51.096;17.190;2022-11-22T12:07:36;99058.38;;;3.63;94.04
41706;BME280;27385;51.096;17.190;2022-11-22T12:10:29;99056.64;;;3.67;94.09
41706;BME280;27385;51.096;17.190;2022-11-22T12:13:04;99052.89;;;3.72;93.92
41706;BME280;27385;51.096;17.190;2022-11-22T12:15:51;99057.27;;;3.74;93.78
41706;BME280;27385;51.096;17.190;2022-11-22T12:18:33;99050.77;;;3.75;93.55
41706;BME280;27385;51.096;17.190;2022-11-22T12:21:14;99049.11;;;3.77;93.81
41706;BME280;27385;51.096;17.190;2022-11-22T12:23:55;99049.73;;;3.81;93.88
41706;BME280;27385;51.096;17.190;2022-11-22T12:26:29;99048.27;;;3.85;93.84
41706;BME280;27385;51.096;17.190;2022-11-22T12:29:02;99044.16;;;3.89;93.82
41706;BME280;27385;51.096;17.190;2022-11-22T12:31:37;99043.45;;;3.92;93.71
41706;BME280;27385;51.096;17.190;2022-11-22T12:34:15;99040.98;;;3.93;93.55
41706;BME280;27385;51.096;17.190;2022-11-22T12:36:51;99038.66;;;3.95;93.56
41706;BME280;27385;51.096;17.190;2022-11-22T12:39:27;99047.06;;;3.96;93.27
41706;BME280;27385;51.096;17.190;2022-11-22T12:42:01;99047.45;;;3.96;93.20
41706;BME280;27385;51.096;17.190;2022-11-22T12:44:38;99046.33;;;3.97;93.26
41706;BME280;27385;51.096;17.190;2022-11-22T12:47:15;99046.32;;;3.98;93.41
41706;BME280;27385;51.096;17.190;2022-11-22T12:49:53;99049.05;;;3.99;93.21
41706;BME280;27385;51.096;17.190;2022-11-22T12:52:31;99050.86;;;3.98;93.10
41706;BME280;27385;51.096;17.190;2022-11-22T12:55:11;99051.14;;;3.99;93.21
41706;BME280;27385;51.096;17.190;2022-11-22T12:57:51;99049.04;;;3.99;93.02
41706;BME280;27385;51.096;17.190;2022-11-22T13:00:27;99046.27;;;3.98;93.01
41706;BME280;27385;51.096;17.190;2022-11-22T13:03:06;99045.00;;;3.98;92.98
41706;BME280;27385;51.096;17.190;2022-11-22T13:05:42;99045.30;;;4.00;93.18
41706;BME280;27385;51.096;17.190;2022-11-22T13:08:21;99039.72;;;4.02;93.07
41706;BME280;27385;51.096;17.190;2022-11-22T13:11:03;99040.14;;;4.04;93.18
41706;BME280;27385;51.096;17.190;2022-11-22T13:13:38;99035.94;;;4.07;93.13
41706;BME280;27385;51.096;17.190;2022-11-22T13:16:13;99035.10;;;4.07;93.07
41706;BME280;27385;51.096;17.190;2022-11-22T13:18:49;99027.39;;;4.08;93.02
41706;BME280;27385;51.096;17.190;2022-11-22T13:21:28;99029.02;;;4.09;92.86
41706;BME280;27385;51.096;17.190;2022-11-22T13:24:18;99031.79;;;4.09;92.64
41706;BME280;27385;51.096;17.190;2022-11-22T13:27:02;99028.73;;;4.10;92.63
41706;BME280;27385;51.096;17.190;2022-11-22T13:29:40;99028.65;;;4.13;92.75
41706;BME280;27385;51.096;17.190;2022-11-22T13:32:20;99030.27;;;4.13;92.56
41706;BME280;27385;51.096;17.190;2022-11-22T13:35:16;99027.42;;;4.12;92.49
41706;BME280;27385;51.096;17.190;2022-11-22T13:37:53;99031.39;;;4.12;92.44